sensor_id;sensor_type;location;lat;lon;timestamp;pressure;altitude;pressure_sealevel;temperature;humidity
13869;BME280;7004;48.206;16.402;2023-03-18T00:01:03;99693.69;;;5.90;42.60
13869;BME280;7004;48.206;16.402;2023-03-18T00:03:34;99696.06;;;5.97;42.43
13869;BME280;7004;48.206;16.402;2023-03-18T00:06:08;99692.66;;;5.74;43.11
13869;BME280;7004;48.206;16.402;2023-03-18T00:08:35;99705.25;;;5.86;42.99
13869;BME280;7004;48.206;16.402;2023-03-18T00:11:02;99702.81;;;6.02;43.34
13869;BME280;7004;48.206;16.402;2023-03-18T00:13:32;99696.69;;;6.02;42.77
13869;BME280;7004;48.206;16.402;2023-03-18T00:16:01;99699.13;;;6.06;42.80
13869;BME280;7004;48.206;16.402;2023-03-18T00:18:28;99694.06;;;6.02;42.84
13869;BME280;7004;48.206;16.402;2023-03-18T00:20:55;99700.09;;;5.83;43.11
13869;BME280;7004;48.206;16.402;2023-03-18T00:23:22;99691.97;;;5.89;43.24
13869;BME280;7004;48.206;16.402;2023-03-18T00:25:52;99691.47;;;5.81;43.44
13869;BME280;7004;48.206;16.402;2023-03-18T00:28:19;99695.75;;;5.63;43.71
13869;BME280;7004;48.206;16.402;2023-03-18T00:30:45;99700.34;;;5.58;43.97
13869;BME280;7004;48.206;16.402;2023-03-18T00:33:13;99704.66;;;5.80;43.53
13869;BME280;7004;48.206;16.402;2023-03-18T00:35:39;99693.03;;;5.85;43.49
13869;BME280;7004;48.206;16.402;2023-03-18T00:38:07;99696.31;;;5.70;43.86
13869;BME280;7004;48.206;16.402;2023-03-18T00:40:35;99698.06;;;5.51;44.55
13869;BME280;7004;48.206;16.402;2023-03-18T00:43:11;99689.78;;;5.60;44.63
13869;BME280;7004;48.206;16.402;2023-03-18T00:45:40;99683.69;;;5.59;44.44
13869;BME280;7004;48.206;16.402;2023-03-18T00:48:07;99689.59;;;5.44;44.51
13869;BME280;7004;48.206;16.402;2023-03-18T00:50:34;99688.56;;;5.48;44.02
13869;BME280;7004;48.206;16.402;2023-03-18T00:53:01;99690.25;;;5.49;44.04
13869;BME280;7004;48.206;16.402;2023-03-18T00:55:28;99684.47;;;5.41;44.11
13869;BME280;7004;48.206;16.402;2023-03-18T00:57:54;99686.44;;;5.56;43.73
13869;BME280;7004;48.206;16.402;2023-03-18T01:00:20;99679.06;;;5.45;44.16
13869;BME280;7004;48.206;16.402;2023-03-18T01:02:47;99676.66;;;5.39;44.27
13869;BME280;7004;48.206;16.402;2023-03-18T01:05:16;99677.56;;;5.40;44.25
13869;BME280;7004;48.206;16.402;2023-03-18T01:07:43;99670.69;;;5.77;43.55
13869;BME280;7004;48.206;16.402;2023-03-18T01:10:11;99690.31;;;5.27;44.36
13869;BME280;7004;48.206;16.402;2023-03-18T01:12:38;99679.56;;;5.33;44.61
13869;BME280;7004;48.206;16.402;2023-03-18T01:15:08;99673.66;;;5.48;44.28
13869;BME280;7004;48.206;16.402;2023-03-18T01:17:38;99677.00;;;5.52;44.05
13869;BME280;7004;48.206;16.402;2023-03-18T01:20:05;99677.66;;;5.37;43.92
13869;BME280;7004;48.206;16.402;2023-03-18T01:22:31;99674.50;;;5.49;44.43
13869;BME280;7004;48.206;16.402;2023-03-18T01:24:57;99668.28;;;5.31;44.54
13869;BME280;7004;48.206;16.402;2023-03-18T01:27:24;99652.13;;;5.21;44.52
13869;BME280;7004;48.206;16.402;2023-03-18T01:29:50;99656.38;;;5.24;44.50
13869;BME280;7004;48.206;16.402;2023-03-18T01:32:16;99656.16;;;5.29;44.57
13869;BME280;7004;48.206;16.402;2023-03-18T01:34:43;99666.59;;;5.30;44.62
13869;BME280;7004;48.206;16.402;2023-03-18T01:37:09;99644.84;;;5.28;44.44
13869;BME280;7004;48.206;16.402;2023-03-18T01:39:36;99639.88;;;5.22;44.83
13869;BME280;7004;48.206;16.402;2023-03-18T01:42:03;99658.28;;;5.20;44.32
13869;BME280;7004;48.206;16.402;2023-03-18T01:44:31;99656.44;;;5.22;44.08
13869;BME280;7004;48.206;16.402;2023-03-18T01:46:57;99645.78;;;5.27;44.36
13869;BME280;7004;48.206;16.402;2023-03-18T01:49:48;99654.06;;;5.37;44.10
13869;BME280;7004;48.206;16.402;2023-03-18T01:52:23;99657.09;;;5.28;43.95
13869;BME280;7004;48.206;16.402;2023-03-18T01:55:03;99656.38;;;5.24;44.28
13869;BME280;7004;48.206;16.402;2023-03-18T01:57:31;99651.19;;;5.43;43.62
13869;BME280;7004;48.206;16.402;2023-03-18T01:59:59;99658.13;;;5.23;44.61
13869;BME280;7004;48.206;16.402;2023-03-18T02:02:27;99661.34;;;5.30;44.14
13869;BME280;7004;48.206;16.402;2023-03-18T02:04:58;99655.69;;;5.39;43.89
13869;BME280;7004;48.206;16.402;2023-03-18T02:07:29;99665.00;;;5.26;44.57
13869;BME280;7004;48.206;16.402;2023-03-18T02:10:04;99657.09;;;5.07;44.60
13869;BME280;7004;48.206;16.402;2023-03-18T02:12:35;99671.56;;;5.36;44.07
13869;BME280;7004;48.206;16.402;2023-03-18T02:15:08;99665.56;;;5.14;44.46
13869;BME280;7004;48.206;16.402;2023-03-18T02:17:49;99673.47;;;5.12;44.28
13869;BME280;7004;48.206;16.402;2023-03-18T02:23:40;99683.94;;;5.12;44.54
13869;BME280;7004;48.206;16.402;2023-03-18T02:26:20;99680.06;;;5.21;44.42
13869;BME280;7004;48.206;16.402;2023-03-18T02:28:50;99690.16;;;5.10;44.95
13869;BME280;7004;48.206;16.402;2023-03-18T02:31:18;99692.34;;;5.20;44.19
13869;BME280;7004;48.206;16.402;2023-03-18T02:33:46;99688.88;;;5.20;44.20
13869;BME280;7004;48.206;16.402;2023-03-18T02:36:22;99695.47;;;5.29;44.61
13869;BME280;7004;48.206;16.402;2023-03-18T02:38:49;99682.59;;;5.24;44.63
13869;BME280;7004;48.206;16.402;2023-03-18T02:41:19;99698.19;;;5.27;44.49
13869;BME280;7004;48.206;16.402;2023-03-18T02:43:47;99683.50;;;5.23;44.53
13869;BME280;7004;48.206;16.402;2023-03-18T02:48:47;99681.69;;;5.03;44.88
13869;BME280;7004;48.206;16.402;2023-03-18T02:51:16;99681.97;;;4.97;45.10
13869;BME280;7004;48.206;16.402;2023-03-18T02:53:44;99686.84;;;5.06;45.49
13869;BME280;7004;48.206;16.402;2023-03-18T02:56:11;99689.88;;;4.95;45.38
13869;BME280;7004;48.206;16.402;2023-03-18T02:58:37;99689.97;;;5.14;45.37
13869;BME280;7004;48.206;16.402;2023-03-18T03:01:04;99696.66;;;5.01;45.60
13869;BME280;7004;48.206;16.402;2023-03-18T03:03:31;99693.84;;;4.84;46.13
13869;BME280;7004;48.206;16.402;2023-03-18T03:05:58;99704.50;;;5.01;45.65
13869;BME280;7004;48.206;16.402;2023-03-18T03:08:24;99706.56;;;4.93;45.88
13869;BME280;7004;48.206;16.402;2023-03-18T03:10:50;99705.25;;;4.82;46.09
13869;BME280;7004;48.206;16.402;2023-03-18T03:13:20;99714.44;;;4.71;46.62
13869;BME280;7004;48.206;16.402;2023-03-18T03:15:47;99712.91;;;4.87;45.98
13869;BME280;7004;48.206;16.402;2023-03-18T03:18:14;99720.03;;;4.62;46.77
13869;BME280;7004;48.206;16.402;2023-03-18T03:20:40;99724.38;;;4.63;46.67
13869;BME280;7004;48.206;16.402;2023-03-18T03:23:13;99722.47;;;4.66;46.60
13869;BME280;7004;48.206;16.402;2023-03-18T03:25:41;99737.97;;;4.72;47.00
13869;BME280;7004;48.206;16.402;2023-03-18T03:28:07;99741.88;;;4.60;46.84
13869;BME280;7004;48.206;16.402;2023-03-18T03:30:34;99746.28;;;4.60;46.98
13869;BME280;7004;48.206;16.402;2023-03-18T03:33:01;99747.34;;;4.78;46.82
13869;BME280;7004;48.206;16.402;2023-03-18T03:35:27;99751.91;;;4.73;47.08
13869;BME280;7004;48.206;16.402;2023-03-18T03:37:54;99757.00;;;4.76;46.67
13869;BME280;7004;48.206;16.402;2023-03-18T03:40:20;99758.81;;;4.52;47.17
13869;BME280;7004;48.206;16.402;2023-03-18T03:42:47;99767.63;;;4.49;47.04
13869;BME280;7004;48.206;16.402;2023-03-18T03:45:15;99767.94;;;4.64;46.76
13869;BME280;7004;48.206;16.402;2023-03-18T03:47:43;99772.63;;;4.55;47.24
13869;BME280;7004;48.206;16.402;2023-03-18T03:50:12;99775.81;;;4.64;46.82
13869;BME280;7004;48.206;16.402;2023-03-18T03:52:39;99780.03;;;4.68;47.25
13869;BME280;7004;48.206;16.402;2023-03-18T03:55:07;99785.34;;;4.88;46.46
13869;BME280;7004;48.206;16.402;2023-03-18T03:57:35;99790.63;;;4.65;46.92
13869;BME280;7004;48.206;16.402;2023-03-18T04:00:05;99796.16;;;4.57;47.31
13869;BME280;7004;48.206;16.402;2023-03-18T04:02:33;99790.63;;;4.41;47.32
13869;BME280;7004;48.206;16.402;2023-03-18T04:04:59;99793.88;;;4.48;47.95
13869;BME280;7004;48.206;16.402;2023-03-18T04:07:25;99784.13;;;4.28;48.09
13869;BME280;7004;48.206;16.402;2023-03-18T04:09:51;99794.50;;;4.54;47.27
13869;BME280;7004;48.206;16.402;2023-03-18T04:12:18;99789.47;;;4.48;47.61
13869;BME280;7004;48.206;16.402;2023-03-18T04:14:45;99793.00;;;4.47;47.31
13869;BME280;7004;48.206;16.402;2023-03-18T04:17:12;99800.41;;;4.36;47.70
13869;BME280;7004;48.206;16.402;2023-03-18T04:19:40;99796.19;;;4.32;47.93
13869;BME280;7004;48.206;16.402;2023-03-18T04:22:06;99800.50;;;4.56;47.67
13869;BME280;7004;48.206;16.402;2023-03-18T04:24:32;99800.22;;;4.41;47.92
13869;BME280;7004;48.206;16.402;2023-03-18T04:26:58;99802.34;;;4.31;48.31
13869;BME280;7004;48.206;16.402;2023-03-18T04:29:25;99805.53;;;4.39;47.67
13869;BME280;7004;48.206;16.402;2023-03-18T04:31:51;99810.53;;;4.45;48.24
13869;BME280;7004;48.206;16.402;2023-03-18T04:34:17;99804.44;;;4.45;48.20
13869;BME280;7004;48.206;16.402;2023-03-18T04:36:43;99804.47;;;4.20;49.18
13869;BME280;7004;48.206;16.402;2023-03-18T04:39:09;99802.66;;;4.22;48.25
13869;BME280;7004;48.206;16.402;2023-03-18T04:41:35;99792.44;;;4.15;48.78
13869;BME280;7004;48.206;16.402;2023-03-18T04:44:05;99792.59;;;3.86;49.22
13869;BME280;7004;48.206;16.402;2023-03-18T04:46:31;99798.47;;;3.92;49.08
13869;BME280;7004;48.206;16.402;2023-03-18T04:48:58;99795.63;;;3.99;49.54
13869;BME280;7004;48.206;16.402;2023-03-18T04:51:25;99804.63;;;4.15;49.18
13869;BME280;7004;48.206;16.402;2023-03-18T04:53:52;99807.59;;;4.06;49.10
13869;BME280;7004;48.206;16.402;2023-03-18T04:56:19;99808.22;;;4.12;49.14
13869;BME280;7004;48.206;16.402;2023-03-18T04:58:45;99808.78;;;3.97;49.96
13869;BME280;7004;48.206;16.402;2023-03-18T05:01:12;99806.78;;;4.04;49.69
13869;BME280;7004;48.206;16.402;2023-03-18T05:03:39;99807.84;;;3.73;49.53
13869;BME280;7004;48.206;16.402;2023-03-18T05:06:07;99803.13;;;3.84;50.43
13869;BME280;7004;48.206;16.402;2023-03-18T05:08:34;99805.28;;;3.97;49.48
13869;BME280;7004;48.206;16.402;2023-03-18T05:11:00;99809.84;;;3.91;49.56
13869;BME280;7004;48.206;16.402;2023-03-18T05:13:26;99808.97;;;3.91;49.73
13869;BME280;7004;48.206;16.402;2023-03-18T05:15:52;99814.63;;;4.04;50.12
13869;BME280;7004;48.206;16.402;2023-03-18T05:18:18;99819.56;;;4.13;49.21
13869;BME280;7004;48.206;16.402;2023-03-18T05:20:45;99813.56;;;4.09;49.18
13869;BME280;7004;48.206;16.402;2023-03-18T05:23:11;99816.13;;;4.11;49.35
13869;BME280;7004;48.206;16.402;2023-03-18T05:25:38;99825.66;;;4.13;49.88
13869;BME280;7004;48.206;16.402;2023-03-18T05:28:04;99822.47;;;4.29;48.99
13869;BME280;7004;48.206;16.402;2023-03-18T05:30:30;99828.84;;;4.22;48.66
13869;BME280;7004;48.206;16.402;2023-03-18T05:32:56;99818.94;;;4.30;49.49
13869;BME280;7004;48.206;16.402;2023-03-18T05:35:23;99826.97;;;4.00;49.42
13869;BME280;7004;48.206;16.402;2023-03-18T05:37:49;99828.38;;;4.10;49.10
13869;BME280;7004;48.206;16.402;2023-03-18T05:40:16;99835.59;;;4.27;49.17
13869;BME280;7004;48.206;16.402;2023-03-18T05:42:43;99836.66;;;4.47;48.53
13869;BME280;7004;48.206;16.402;2023-03-18T05:45:10;99837.06;;;4.59;48.61
13869;BME280;7004;48.206;16.402;2023-03-18T05:47:37;99837.00;;;4.37;49.16
13869;BME280;7004;48.206;16.402;2023-03-18T05:50:03;99829.66;;;4.47;48.27
13869;BME280;7004;48.206;16.402;2023-03-18T05:52:30;99831.28;;;4.26;48.78
13869;BME280;7004;48.206;16.402;2023-03-18T05:54:56;99839.69;;;4.59;48.27
13869;BME280;7004;48.206;16.402;2023-03-18T05:57:22;99844.13;;;4.81;47.94
13869;BME280;7004;48.206;16.402;2023-03-18T05:59:48;99843.56;;;4.73;47.62
13869;BME280;7004;48.206;16.402;2023-03-18T06:02:15;99849.31;;;4.82;48.26
13869;BME280;7004;48.206;16.402;2023-03-18T06:04:42;99855.19;;;5.11;47.32
13869;BME280;7004;48.206;16.402;2023-03-18T06:07:08;99846.78;;;4.79;47.40
13869;BME280;7004;48.206;16.402;2023-03-18T06:09:35;99858.97;;;4.80;47.52
13869;BME280;7004;48.206;16.402;2023-03-18T06:12:01;99851.06;;;5.28;46.82
13869;BME280;7004;48.206;16.402;2023-03-18T06:14:28;99853.84;;;5.23;46.84
13869;BME280;7004;48.206;16.402;2023-03-18T06:16:55;99862.19;;;5.33;46.86
13869;BME280;7004;48.206;16.402;2023-03-18T06:19:21;99862.59;;;5.00;47.43
13869;BME280;7004;48.206;16.402;2023-03-18T06:21:48;99869.44;;;5.04;47.13
13869;BME280;7004;48.206;16.402;2023-03-18T06:24:14;99858.34;;;5.41;46.64
13869;BME280;7004;48.206;16.402;2023-03-18T06:26:41;99865.72;;;5.54;46.27
13869;BME280;7004;48.206;16.402;2023-03-18T06:29:08;99858.84;;;5.29;46.76
13869;BME280;7004;48.206;16.402;2023-03-18T06:31:35;99848.91;;;5.59;46.48
13869;BME280;7004;48.206;16.402;2023-03-18T06:34:02;99854.94;;;5.39;46.26
13869;BME280;7004;48.206;16.402;2023-03-18T06:36:29;99858.25;;;5.87;46.09
13869;BME280;7004;48.206;16.402;2023-03-18T06:38:56;99864.84;;;5.75;45.43
13869;BME280;7004;48.206;16.402;2023-03-18T06:41:22;99858.97;;;5.90;45.14
13869;BME280;7004;48.206;16.402;2023-03-18T06:43:48;99858.69;;;6.19;44.97
13869;BME280;7004;48.206;16.402;2023-03-18T06:46:17;99848.19;;;5.98;45.24
13869;BME280;7004;48.206;16.402;2023-03-18T06:48:43;99869.31;;;6.16;45.03
13869;BME280;7004;48.206;16.402;2023-03-18T06:51:09;99861.13;;;6.23;44.62
13869;BME280;7004;48.206;16.402;2023-03-18T06:53:36;99863.97;;;6.17;44.15
13869;BME280;7004;48.206;16.402;2023-03-18T06:56:05;99871.41;;;6.28;44.12
13869;BME280;7004;48.206;16.402;2023-03-18T06:58:32;99867.84;;;6.29;43.03
13869;BME280;7004;48.206;16.402;2023-03-18T07:00:59;99866.31;;;6.64;42.83
13869;BME280;7004;48.206;16.402;2023-03-18T07:03:25;99867.53;;;6.76;42.62
13869;BME280;7004;48.206;16.402;2023-03-18T07:05:52;99871.59;;;6.83;42.70
13869;BME280;7004;48.206;16.402;2023-03-18T07:08:19;99865.97;;;7.10;41.47
13869;BME280;7004;48.206;16.402;2023-03-18T07:10:45;99862.16;;;6.98;41.71
13869;BME280;7004;48.206;16.402;2023-03-18T07:13:12;99871.50;;;6.85;42.18
13869;BME280;7004;48.206;16.402;2023-03-18T07:15:38;99880.50;;;7.36;40.94
13869;BME280;7004;48.206;16.402;2023-03-18T07:18:04;99878.00;;;7.52;40.52
13869;BME280;7004;48.206;16.402;2023-03-18T07:20:31;99867.59;;;8.20;38.96
13869;BME280;7004;48.206;16.402;2023-03-18T07:22:59;99868.75;;;8.31;39.23
13869;BME280;7004;48.206;16.402;2023-03-18T07:25:26;99871.03;;;8.88;37.95
13869;BME280;7004;48.206;16.402;2023-03-18T07:27:52;99864.34;;;9.30;37.34
13869;BME280;7004;48.206;16.402;2023-03-18T07:30:19;99870.78;;;8.77;37.62
13869;BME280;7004;48.206;16.402;2023-03-18T07:32:46;99882.25;;;8.25;38.44
13869;BME280;7004;48.206;16.402;2023-03-18T07:35:12;99857.63;;;8.93;37.54
13869;BME280;7004;48.206;16.402;2023-03-18T07:37:41;99870.13;;;9.53;36.68
13869;BME280;7004;48.206;16.402;2023-03-18T07:40:09;99882.78;;;9.62;35.87
13869;BME280;7004;48.206;16.402;2023-03-18T07:42:37;99880.84;;;9.50;36.14
13869;BME280;7004;48.206;16.402;2023-03-18T07:45:05;99886.16;;;9.34;35.81
13869;BME280;7004;48.206;16.402;2023-03-18T07:47:32;99872.88;;;10.70;34.22
13869;BME280;7004;48.206;16.402;2023-03-18T07:49:58;99880.78;;;10.42;34.27
13869;BME280;7004;48.206;16.402;2023-03-18T07:52:25;99882.53;;;10.71;33.73
13869;BME280;7004;48.206;16.402;2023-03-18T07:54:51;99875.78;;;10.07;34.29
13869;BME280;7004;48.206;16.402;2023-03-18T07:57:17;99894.56;;;9.40;35.41
13869;BME280;7004;48.206;16.402;2023-03-18T07:59:44;99896.16;;;9.43;35.33
13869;BME280;7004;48.206;16.402;2023-03-18T08:02:12;99890.88;;;9.59;35.62
13869;BME280;7004;48.206;16.402;2023-03-18T08:04:40;99906.75;;;8.94;36.50
13869;BME280;7004;48.206;16.402;2023-03-18T08:07:07;99896.00;;;8.65;37.50
13869;BME280;7004;48.206;16.402;2023-03-18T08:09:34;99896.53;;;8.72;36.67
13869;BME280;7004;48.206;16.402;2023-03-18T08:12:00;99903.66;;;9.35;36.11
13869;BME280;7004;48.206;16.402;2023-03-18T08:14:26;99895.56;;;9.22;36.27
13869;BME280;7004;48.206;16.402;2023-03-18T08:16:52;99899.47;;;9.15;36.16
13869;BME280;7004;48.206;16.402;2023-03-18T08:19:18;99900.75;;;9.55;35.61
13869;BME280;7004;48.206;16.402;2023-03-18T08:21:44;99901.00;;;9.67;35.64
13869;BME280;7004;48.206;16.402;2023-03-18T08:24:11;99907.47;;;9.61;35.80
13869;BME280;7004;48.206;16.402;2023-03-18T08:26:37;99897.63;;;9.95;35.08
13869;BME280;7004;48.206;16.402;2023-03-18T08:29:03;99909.28;;;9.60;35.63
13869;BME280;7004;48.206;16.402;2023-03-18T08:31:30;99902.53;;;10.01;35.35
13869;BME280;7004;48.206;16.402;2023-03-18T08:33:57;99903.75;;;9.95;35.37
13869;BME280;7004;48.206;16.402;2023-03-18T08:36:24;99902.97;;;10.09;35.35
13869;BME280;7004;48.206;16.402;2023-03-18T08:38:54;99906.06;;;10.01;35.63
13869;BME280;7004;48.206;16.402;2023-03-18T08:41:22;99906.53;;;9.62;35.24
13869;BME280;7004;48.206;16.402;2023-03-18T08:43:52;99896.06;;;11.23;33.52
13869;BME280;7004;48.206;16.402;2023-03-18T08:46:20;99900.66;;;10.03;34.71
13869;BME280;7004;48.206;16.402;2023-03-18T08:48:46;99896.88;;;10.82;33.66
13869;BME280;7004;48.206;16.402;2023-03-18T08:51:12;99897.97;;;11.21;33.68
13869;BME280;7004;48.206;16.402;2023-03-18T08:53:39;99899.81;;;11.47;33.17
13869;BME280;7004;48.206;16.402;2023-03-18T08:56:06;99905.34;;;11.15;33.16
13869;BME280;7004;48.206;16.402;2023-03-18T08:58:33;99908.16;;;10.55;33.62
13869;BME280;7004;48.206;16.402;2023-03-18T09:00:59;99897.34;;;10.74;34.00
13869;BME280;7004;48.206;16.402;2023-03-18T09:03:29;99897.19;;;11.33;33.28
13869;BME280;7004;48.206;16.402;2023-03-18T09:05:55;99904.22;;;10.48;34.19
13869;BME280;7004;48.206;16.402;2023-03-18T09:08:22;99891.47;;;10.98;33.77
13869;BME280;7004;48.206;16.402;2023-03-18T09:10:52;99900.75;;;10.90;34.10
13869;BME280;7004;48.206;16.402;2023-03-18T09:13:20;99890.84;;;11.35;32.46
13869;BME280;7004;48.206;16.402;2023-03-18T09:15:46;99884.69;;;10.65;33.96
13869;BME280;7004;48.206;16.402;2023-03-18T09:18:14;99908.56;;;11.06;33.41
13869;BME280;7004;48.206;16.402;2023-03-18T09:20:41;99895.94;;;11.38;32.75
13869;BME280;7004;48.206;16.402;2023-03-18T09:23:09;99891.72;;;10.36;34.62
13869;BME280;7004;48.206;16.402;2023-03-18T09:25:36;99882.69;;;10.10;34.57
13869;BME280;7004;48.206;16.402;2023-03-18T09:28:02;99895.56;;;10.00;34.37
13869;BME280;7004;48.206;16.402;2023-03-18T09:30:29;99898.56;;;10.54;33.83
13869;BME280;7004;48.206;16.402;2023-03-18T09:32:55;99901.28;;;11.10;32.86
13869;BME280;7004;48.206;16.402;2023-03-18T09:35:21;99897.22;;;11.60;32.12
13869;BME280;7004;48.206;16.402;2023-03-18T09:37:48;99894.72;;;11.71;32.06
13869;BME280;7004;48.206;16.402;2023-03-18T09:40:36;99888.81;;;11.80;32.13
13869;BME280;7004;48.206;16.402;2023-03-18T09:52:21;99884.28;;;12.86;30.33
13869;BME280;7004;48.206;16.402;2023-03-18T09:57:40;99875.19;;;11.59;31.50
13869;BME280;7004;48.206;16.402;2023-03-18T10:00:20;99865.66;;;11.15;32.71
13869;BME280;7004;48.206;16.402;2023-03-18T10:03:36;99871.25;;;12.58;30.93
13869;BME280;7004;48.206;16.402;2023-03-18T10:06:21;99882.47;;;12.10;30.79
13869;BME280;7004;48.206;16.402;2023-03-18T10:09:05;99875.06;;;12.28;31.53
13869;BME280;7004;48.206;16.402;2023-03-18T10:17:20;99871.63;;;13.28;29.74
13869;BME280;7004;48.206;16.402;2023-03-18T10:19:54;99866.16;;;14.02;28.96
13869;BME280;7004;48.206;16.402;2023-03-18T10:25:50;99862.97;;;12.62;30.61
13869;BME280;7004;48.206;16.402;2023-03-18T10:35:18;99856.25;;;13.45;29.88
13869;BME280;7004;48.206;16.402;2023-03-18T10:40:48;99854.63;;;14.37;28.72
13869;BME280;7004;48.206;16.402;2023-03-18T10:43:28;99856.06;;;13.83;28.67
13869;BME280;7004;48.206;16.402;2023-03-18T10:46:05;99857.03;;;13.34;29.47
13869;BME280;7004;48.206;16.402;2023-03-18T10:49:04;99863.66;;;13.76;29.09
13869;BME280;7004;48.206;16.402;2023-03-18T10:52:04;99857.47;;;13.28;29.41
13869;BME280;7004;48.206;16.402;2023-03-18T10:54:41;99851.47;;;14.90;28.36
13869;BME280;7004;48.206;16.402;2023-03-18T10:57:14;99852.41;;;14.77;28.32
13869;BME280;7004;48.206;16.402;2023-03-18T10:59:42;99845.22;;;14.44;28.50
13869;BME280;7004;48.206;16.402;2023-03-18T11:02:29;99850.44;;;14.46;28.39
13869;BME280;7004;48.206;16.402;2023-03-18T11:08:01;99849.38;;;14.93;27.64
13869;BME280;7004;48.206;16.402;2023-03-18T11:10:45;99845.09;;;15.68;27.48
13869;BME280;7004;48.206;16.402;2023-03-18T11:13:19;99848.47;;;13.90;29.24
13869;BME280;7004;48.206;16.402;2023-03-18T11:15:53;99830.91;;;15.35;27.44
13869;BME280;7004;48.206;16.402;2023-03-18T11:18:23;99845.63;;;15.18;28.00
13869;BME280;7004;48.206;16.402;2023-03-18T11:20:57;99846.25;;;14.77;28.76
13869;BME280;7004;48.206;16.402;2023-03-18T11:23:37;99830.41;;;14.53;28.65
13869;BME280;7004;48.206;16.402;2023-03-18T11:26:52;99841.63;;;15.13;27.97
13869;BME280;7004;48.206;16.402;2023-03-18T11:29:57;99832.56;;;15.04;28.21
13869;BME280;7004;48.206;16.402;2023-03-18T11:32:28;99837.06;;;14.70;28.35
13869;BME280;7004;48.206;16.402;2023-03-18T11:35:05;99822.94;;;13.76;29.32
13869;BME280;7004;48.206;16.402;2023-03-18T11:37:36;99821.72;;;14.15;29.65
13869;BME280;7004;48.206;16.402;2023-03-18T11:40:16;99812.13;;;14.48;29.32
13869;BME280;7004;48.206;16.402;2023-03-18T11:42:46;99814.50;;;14.29;29.47
13869;BME280;7004;48.206;16.402;2023-03-18T11:45:29;99798.47;;;15.41;28.16
13869;BME280;7004;48.206;16.402;2023-03-18T11:47:57;99812.88;;;14.61;29.48
13869;BME280;7004;48.206;16.402;2023-03-18T11:50:34;99804.22;;;15.25;28.20
13869;BME280;7004;48.206;16.402;2023-03-18T11:53:37;99800.84;;;14.45;29.28
13869;BME280;7004;48.206;16.402;2023-03-18T11:56:45;99796.75;;;15.40;27.98
13869;BME280;7004;48.206;16.402;2023-03-18T12:07:49;99777.53;;;15.37;28.66
13869;BME280;7004;48.206;16.402;2023-03-18T12:10:40;99778.03;;;15.63;28.27
13869;BME280;7004;48.206;16.402;2023-03-18T12:17:55;99768.81;;;14.91;29.53
13869;BME280;7004;48.206;16.402;2023-03-18T12:23:03;99755.25;;;16.43;28.44
13869;BME280;7004;48.206;16.402;2023-03-18T12:29:07;99760.97;;;15.86;28.89
13869;BME280;7004;48.206;16.402;2023-03-18T12:31:56;99756.66;;;16.47;28.15
13869;BME280;7004;48.206;16.402;2023-03-18T12:47:10;99746.34;;;15.48;28.58
13869;BME280;7004;48.206;16.402;2023-03-18T12:49:58;99749.91;;;16.12;27.63
13869;BME280;7004;48.206;16.402;2023-03-18T12:52:28;99745.44;;;15.38;28.50
13869;BME280;7004;48.206;16.402;2023-03-18T12:57:46;99726.06;;;16.81;26.42
13869;BME280;7004;48.206;16.402;2023-03-18T13:00:23;99739.41;;;16.81;26.74
13869;BME280;7004;48.206;16.402;2023-03-18T13:03:33;99740.66;;;16.47;26.61
13869;BME280;7004;48.206;16.402;2023-03-18T13:06:23;99745.09;;;16.36;26.84
13869;BME280;7004;48.206;16.402;2023-03-18T13:09:30;99745.19;;;16.56;26.39
13869;BME280;7004;48.206;16.402;2023-03-18T13:12:13;99732.00;;;17.05;26.14
13869;BME280;7004;48.206;16.402;2023-03-18T13:17:36;99737.91;;;16.58;26.41
13869;BME280;7004;48.206;16.402;2023-03-18T13:20:23;99734.75;;;16.43;26.60
13869;BME280;7004;48.206;16.402;2023-03-18T13:31:05;99723.88;;;16.75;26.39
13869;BME280;7004;48.206;16.402;2023-03-18T13:39:52;99717.44;;;16.68;26.01
13869;BME280;7004;48.206;16.402;2023-03-18T13:42:30;99727.69;;;16.32;26.18
13869;BME280;7004;48.206;16.402;2023-03-18T13:45:35;99721.75;;;16.19;26.17
13869;BME280;7004;48.206;16.402;2023-03-18T13:48:16;99723.00;;;16.55;26.06
13869;BME280;7004;48.206;16.402;2023-03-18T13:50:45;99727.91;;;16.50;25.70
13869;BME280;7004;48.206;16.402;2023-03-18T13:53:32;99724.31;;;15.79;26.01
13869;BME280;7004;48.206;16.402;2023-03-18T13:56:05;99710.03;;;16.81;25.54
13869;BME280;7004;48.206;16.402;2023-03-18T13:58:49;99717.34;;;16.79;25.47
13869;BME280;7004;48.206;16.402;2023-03-18T14:01:47;99702.94;;;16.61;25.63
13869;BME280;7004;48.206;16.402;2023-03-18T14:04:44;99706.59;;;16.20;26.13
13869;BME280;7004;48.206;16.402;2023-03-18T14:07:17;99703.00;;;16.80;25.76
13869;BME280;7004;48.206;16.402;2023-03-18T14:17:41;99701.53;;;16.26;26.35
13869;BME280;7004;48.206;16.402;2023-03-18T14:22:45;99686.88;;;15.59;26.50
13869;BME280;7004;48.206;16.402;2023-03-18T14:25:21;99686.13;;;15.99;26.38
13869;BME280;7004;48.206;16.402;2023-03-18T14:27:58;99683.28;;;15.91;26.00
13869;BME280;7004;48.206;16.402;2023-03-18T14:36:27;99681.47;;;15.49;26.83
13869;BME280;7004;48.206;16.402;2023-03-18T14:39:05;99683.88;;;15.52;26.38
13869;BME280;7004;48.206;16.402;2023-03-18T14:41:43;99680.28;;;15.42;26.78
13869;BME280;7004;48.206;16.402;2023-03-18T14:44:42;99676.91;;;15.40;27.12
13869;BME280;7004;48.206;16.402;2023-03-18T14:47:39;99678.53;;;15.52;27.23
13869;BME280;7004;48.206;16.402;2023-03-18T14:50:38;99679.69;;;15.18;27.15
13869;BME280;7004;48.206;16.402;2023-03-18T14:53:34;99677.31;;;15.57;26.70
13869;BME280;7004;48.206;16.402;2023-03-18T14:56:04;99673.22;;;15.32;27.24
13869;BME280;7004;48.206;16.402;2023-03-18T14:58:33;99677.44;;;15.55;27.02
13869;BME280;7004;48.206;16.402;2023-03-18T15:01:08;99673.28;;;15.62;26.86
13869;BME280;7004;48.206;16.402;2023-03-18T15:03:40;99675.50;;;15.78;26.66
13869;BME280;7004;48.206;16.402;2023-03-18T15:06:19;99671.06;;;15.25;27.13
13869;BME280;7004;48.206;16.402;2023-03-18T15:08:55;99669.78;;;15.62;26.99
13869;BME280;7004;48.206;16.402;2023-03-18T15:11:24;99675.88;;;15.52;27.53
13869;BME280;7004;48.206;16.402;2023-03-18T15:13:54;99675.50;;;15.36;28.10
13869;BME280;7004;48.206;16.402;2023-03-18T15:16:23;99664.94;;;15.35;27.62